createdAt,value
2023-04-28T00:02:09.520Z,100988.75
2023-04-28T00:04:37.056Z,100990.28
2023-04-28T00:07:03.714Z,100990.28
2023-04-28T00:09:30.176Z,100982.34
2023-04-28T00:11:56.663Z,100989.88
2023-04-28T00:14:23.142Z,100991.06
2023-04-28T00:16:49.792Z,100985.09
2023-04-28T00:19:16.427Z,100983.09
2023-04-28T00:21:42.899Z,100991.06
2023-04-28T00:24:09.398Z,100995.41
2023-04-28T00:26:35.877Z,101002.94
2023-04-28T00:29:02.337Z,100994.16
2023-04-28T00:31:29.805Z,101002.88
2023-04-28T00:33:56.296Z,100987.78
2023-04-28T00:36:22.749Z,100996.09
2023-04-28T00:38:49.207Z,100992.94
2023-04-28T00:41:16.601Z,100997.28
2023-04-28T00:43:43.063Z,101002.81
2023-04-28T00:46:10.532Z,100998.47
2023-04-28T00:48:37.965Z,101001.59
2023-04-28T00:51:04.445Z,100998.84
2023-04-28T00:53:31.843Z,100996.44
2023-04-28T00:55:58.323Z,100996.81
2023-04-28T00:58:24.795Z,100997.22
2023-04-28T01:00:51.277Z,100997.66
2023-04-28T01:03:18.940Z,101002.34
2023-04-28T01:05:45.564Z,100992.09
2023-04-28T01:08:12.967Z,100999.22
2023-04-28T01:10:39.431Z,101002.34
2023-04-28T01:13:05.916Z,101003.19
2023-04-28T01:15:32.387Z,101007.13
2023-04-28T01:17:58.907Z,101003.19
2023-04-28T01:20:25.397Z,101010.25
2023-04-28T01:22:52.808Z,101005.47
2023-04-28T01:25:19.290Z,101009.84
2023-04-28T01:27:45.757Z,101010.22
2023-04-28T01:30:12.214Z,101011.38
2023-04-28T01:32:38.738Z,101005.84
2023-04-28T01:35:05.232Z,101010.97
2023-04-28T01:37:31.655Z,101009.75
2023-04-28T01:39:58.119Z,101014.50
2023-04-28T01:42:24.587Z,101017.25
2023-04-28T01:44:51.980Z,101021.22
2023-04-28T01:47:19.376Z,101016.88
2023-04-28T01:49:46.810Z,101019.25
2023-04-28T01:52:14.263Z,101009.75
2023-04-28T01:54:41.683Z,101016.78
2023-04-28T01:57:08.181Z,101014.84
2023-04-28T01:59:34.638Z,101012.50
2023-04-28T02:02:01.168Z,101008.53
2023-04-28T02:04:27.715Z,101011.66
2023-04-28T02:06:54.240Z,101018.41
2023-04-28T02:09:20.705Z,101012.50
2023-04-28T02:11:47.181Z,101014.44
2023-04-28T02:14:13.874Z,101008.09
2023-04-28T02:16:41.387Z,100999.41
2023-04-28T02:19:07.867Z,101012.06
2023-04-28T02:21:34.359Z,101009.72
2023-04-28T02:24:00.833Z,101007.72
2023-04-28T02:26:27.311Z,101011.66
2023-04-28T02:28:53.793Z,101010.47
2023-04-28T02:31:21.239Z,101012.88
2023-04-28T02:33:48.654Z,101024.75
2023-04-28T02:36:15.130Z,101022.72
2023-04-28T02:38:41.676Z,101023.53
2023-04-28T02:41:08.214Z,101019.16
2023-04-28T02:43:34.691Z,101025.84
2023-04-28T02:46:01.259Z,101028.25
2023-04-28T02:48:27.766Z,101017.16
2023-04-28T02:50:54.286Z,101020.72
2023-04-28T02:53:20.779Z,101020.31
2023-04-28T02:55:47.257Z,101015.16
2023-04-28T02:58:14.659Z,101012.00
2023-04-28T03:00:41.130Z,101014.34
2023-04-28T03:03:07.811Z,101011.94
2023-04-28T03:05:34.493Z,101013.94
2023-04-28T03:08:00.944Z,101017.06
2023-04-28T03:10:27.431Z,101023.03
2023-04-28T03:12:54.870Z,101017.88
2023-04-28T03:15:22.268Z,101024.28
2023-04-28T03:17:48.790Z,101023.41
2023-04-28T03:20:16.289Z,101029.03
2023-04-28T03:22:42.762Z,101024.66
2023-04-28T03:25:10.189Z,101026.19
2023-04-28T03:27:36.632Z,101029.78
2023-04-28T03:30:03.134Z,101026.13
2023-04-28T03:32:29.664Z,101028.16
2023-04-28T03:34:56.187Z,101039.31
2023-04-28T03:37:22.660Z,101045.34
2023-04-28T03:39:49.140Z,101035.84
2023-04-28T03:42:16.582Z,101041.00
2023-04-28T03:44:43.057Z,101033.84
2023-04-28T03:47:09.522Z,101033.47
2023-04-28T03:49:35.978Z,101037.06
2023-04-28T03:52:02.441Z,101033.97
2023-04-28T03:54:28.998Z,101037.13
2023-04-28T03:56:55.497Z,101039.13
2023-04-28T03:59:22.065Z,101037.16
2023-04-28T04:01:48.614Z,101042.34
2023-04-28T04:04:16.292Z,101045.94
2023-04-28T04:06:44.397Z,101047.97
2023-04-28T04:09:11.815Z,101046.03
2023-04-28T04:11:38.298Z,101045.06
2023-04-28T04:14:04.785Z,101048.44
2023-04-28T04:16:32.229Z,101051.78
2023-04-28T04:18:58.754Z,101054.41
2023-04-28T04:21:25.228Z,101052.06
2023-04-28T04:23:51.705Z,101058.03
2023-04-28T04:26:19.090Z,101053.31
2023-04-28T04:28:45.584Z,101059.66
2023-04-28T04:31:12.989Z,101063.97
2023-04-28T04:33:40.414Z,101063.91
2023-04-28T04:36:06.906Z,101063.47
2023-04-28T04:38:34.377Z,101067.84
2023-04-28T04:41:00.865Z,101066.28
2023-04-28T04:43:27.344Z,101062.38
2023-04-28T04:45:53.838Z,101061.16
2023-04-28T04:48:21.264Z,101063.09
2023-04-28T04:50:47.728Z,101071.84
2023-04-28T04:53:16.208Z,101058.84
2023-04-28T04:55:43.919Z,101062.41
2023-04-28T04:58:11.336Z,101065.63
2023-04-28T05:00:37.818Z,101077.53
2023-04-28T05:03:04.326Z,101076.72
2023-04-28T05:05:30.973Z,101075.06
2023-04-28T05:07:57.474Z,101078.94
2023-04-28T05:10:24.855Z,101082.06
2023-04-28T05:12:51.358Z,101074.44
2023-04-28T05:15:18.829Z,101066.72
2023-04-28T05:17:46.326Z,101065.88
2023-04-28T05:20:13.043Z,101064.81
2023-04-28T05:22:39.564Z,101070.81
2023-04-28T05:25:06.071Z,101071.59
2023-04-28T05:27:32.544Z,101078.38
2023-04-28T05:29:59.027Z,101073.63
2023-04-28T05:32:25.517Z,101068.50
2023-04-28T05:34:52.970Z,101078.06
2023-04-28T05:37:20.354Z,101071.75
2023-04-28T05:39:46.880Z,101067.00
2023-04-28T05:42:13.345Z,101074.50
2023-04-28T05:44:41.747Z,101077.34
2023-04-28T05:47:09.406Z,101074.94
2023-04-28T05:49:36.082Z,101074.19
2023-04-28T05:52:03.465Z,101078.19
2023-04-28T05:54:30.865Z,101073.44
2023-04-28T05:56:58.085Z,101079.03
2023-04-28T05:59:25.554Z,101081.44
2023-04-28T06:01:52.049Z,101083.03
2023-04-28T06:04:19.923Z,101083.47
2023-04-28T06:06:46.638Z,101081.47
2023-04-28T06:09:14.159Z,101086.66
2023-04-28T06:11:40.677Z,101080.72
2023-04-28T06:14:07.146Z,101083.13
2023-04-28T06:16:33.720Z,101082.75
2023-04-28T06:19:00.225Z,101081.59
2023-04-28T06:21:26.692Z,101081.59
2023-04-28T06:23:53.175Z,101083.22
2023-04-28T06:26:19.716Z,101084.41
2023-04-28T06:28:46.169Z,101080.09
2023-04-28T06:31:12.706Z,101087.22
2023-04-28T06:33:40.141Z,101090.00
2023-04-28T06:36:06.616Z,101087.59
2023-04-28T06:38:33.153Z,101088.06
2023-04-28T06:41:00.541Z,101083.38
2023-04-28T06:43:27.940Z,101091.31
2023-04-28T06:45:54.397Z,101090.19
2023-04-28T06:48:21.823Z,101090.97
2023-04-28T06:50:49.208Z,101086.63
2023-04-28T06:53:15.647Z,101087.03
2023-04-28T06:55:43.031Z,101091.84
2023-04-28T06:58:09.490Z,101090.72
2023-04-28T07:00:36.819Z,101088.78
2023-04-28T07:03:03.406Z,101094.81
2023-04-28T07:05:30.125Z,101092.81
2023-04-28T07:07:56.573Z,101089.69
2023-04-28T07:10:23.022Z,101089.69
2023-04-28T07:12:50.323Z,101081.41
2023-04-28T07:15:16.754Z,101083.00
2023-04-28T07:17:44.080Z,101081.44
2023-04-28T07:20:10.557Z,101087.06
2023-04-28T07:22:37.004Z,101088.69
2023-04-28T07:25:04.334Z,101079.97
2023-04-28T07:27:30.842Z,101081.59
2023-04-28T07:29:57.317Z,101080.03
2023-04-28T07:32:23.890Z,101082.03
2023-04-28T07:34:50.417Z,101075.34
2023-04-28T07:37:16.845Z,101072.97
2023-04-28T07:39:46.776Z,101069.03
2023-04-28T07:42:15.086Z,101072.97
2023-04-28T07:44:43.378Z,101067.47
2023-04-28T07:47:09.867Z,101057.19
2023-04-28T07:49:39.071Z,101059.97
2023-04-28T07:52:05.530Z,101064.34
2023-04-28T07:54:31.930Z,101056.81
2023-04-28T07:56:58.334Z,101058.47
2023-04-28T07:59:24.771Z,101048.19
2023-04-28T08:01:51.184Z,101058.91
2023-04-28T08:04:19.944Z,101056.91
2023-04-28T08:06:46.702Z,101060.13
2023-04-28T08:09:15.833Z,101058.16
2023-04-28T08:11:42.262Z,101051.38
2023-04-28T08:14:08.661Z,101041.72
2023-04-28T08:16:34.993Z,101044.53
2023-04-28T08:19:01.411Z,101042.22
2023-04-28T08:21:27.791Z,101056.88
2023-04-28T08:23:54.268Z,101052.88
2023-04-28T08:26:21.522Z,101050.03
2023-04-28T08:28:47.908Z,101045.69
2023-04-28T08:31:15.182Z,101053.19
2023-04-28T08:33:41.551Z,101047.28
2023-04-28T08:36:07.939Z,101039.41
2023-04-28T08:38:34.288Z,101045.31
2023-04-28T08:41:01.519Z,101040.09
2023-04-28T08:43:27.875Z,101033.38
2023-04-28T08:45:54.214Z,101041.00
2023-04-28T08:48:20.600Z,101038.28
2023-04-28T08:50:46.971Z,101034.31
2023-04-28T08:53:13.336Z,101039.09
2023-04-28T08:55:39.678Z,101032.34
2023-04-28T08:58:06.045Z,101033.59
2023-04-28T09:00:32.410Z,101029.63
2023-04-28T09:02:58.884Z,101034.78
2023-04-28T09:05:25.484Z,101033.59
2023-04-28T09:07:52.319Z,101029.63
2023-04-28T09:10:18.869Z,101027.69
2023-04-28T09:12:45.264Z,101026.44
2023-04-28T09:15:12.474Z,101019.69
2023-04-28T09:17:38.843Z,101026.38
2023-04-28T09:20:05.228Z,101021.13
2023-04-28T09:22:31.631Z,101015.50
2023-04-28T09:24:58.007Z,101012.75
2023-04-28T09:27:24.371Z,101021.06
2023-04-28T09:29:50.718Z,101011.09
2023-04-28T09:32:17.210Z,101011.09
2023-04-28T09:34:43.599Z,101014.25
2023-04-28T09:37:09.942Z,101009.94
2023-04-28T09:39:36.348Z,101000.84
2023-04-28T09:42:02.702Z,101002.44
2023-04-28T09:44:29.063Z,101006.00
2023-04-28T09:46:55.430Z,101006.81
2023-04-28T09:49:21.798Z,100998.09
2023-04-28T09:51:48.167Z,100995.31
2023-04-28T09:54:14.530Z,100998.56
2023-04-28T09:56:40.976Z,100993.78
2023-04-28T09:59:07.377Z,100992.22
2023-04-28T10:01:33.729Z,100982.31
2023-04-28T10:04:00.219Z,100969.59
2023-04-28T10:06:26.659Z,100966.75
2023-04-28T10:08:52.996Z,100968.38
2023-04-28T10:11:19.353Z,100958.50
2023-04-28T10:13:45.748Z,100960.41
2023-04-28T10:16:12.097Z,100956.81
2023-04-28T10:18:38.496Z,100954.88
2023-04-28T10:21:04.925Z,100953.28
2023-04-28T10:23:31.287Z,100950.94
2023-04-28T10:25:57.634Z,100947.75
2023-04-28T10:28:23.996Z,100948.91
2023-04-28T10:30:50.388Z,100939.78
2023-04-28T10:33:17.610Z,100943.34
2023-04-28T10:35:43.952Z,100937.00
2023-04-28T10:38:10.312Z,100939.34
2023-04-28T10:40:36.692Z,100939.78
2023-04-28T10:43:03.098Z,100938.63
2023-04-28T10:45:29.472Z,100935.06
2023-04-28T10:47:55.841Z,100936.69
2023-04-28T10:50:29.299Z,100925.94
2023-04-28T10:53:04.679Z,100933.13
2023-04-28T10:55:31.027Z,100938.69
2023-04-28T10:57:57.399Z,100925.53
2023-04-28T11:00:23.753Z,100933.47
2023-04-28T11:02:50.385Z,100931.06
2023-04-28T11:05:16.988Z,100925.56
2023-04-28T11:07:43.469Z,100930.75
2023-04-28T11:10:09.856Z,100919.63
2023-04-28T11:12:36.171Z,100920.81
2023-04-28T11:15:02.521Z,100913.69
2023-04-28T11:17:28.897Z,100915.25
2023-04-28T11:19:55.258Z,100912.09
2023-04-28T11:22:21.625Z,100904.50
2023-04-28T11:24:49.126Z,100910.47
2023-04-28T11:27:15.507Z,100901.72
2023-04-28T11:29:41.837Z,100903.31
2023-04-28T11:32:08.472Z,100888.66
2023-04-28T11:34:34.955Z,100893.38
2023-04-28T11:37:01.307Z,100888.56
2023-04-28T11:39:27.659Z,100890.09
2023-04-28T11:41:54.013Z,100886.50
2023-04-28T11:44:20.369Z,100885.69
2023-04-28T11:46:46.710Z,100885.69
2023-04-28T11:49:13.064Z,100890.47
2023-04-28T11:51:39.483Z,100890.06
2023-04-28T11:54:05.824Z,100886.84
2023-04-28T11:56:32.146Z,100886.84
2023-04-28T11:58:58.469Z,100885.25
2023-04-28T12:01:24.802Z,100891.19
2023-04-28T12:03:51.218Z,100880.47
2023-04-28T12:06:17.637Z,100882.47
2023-04-28T12:08:43.990Z,100878.88
2023-04-28T12:11:10.329Z,100876.09
2023-04-28T12:13:36.666Z,100872.13
2023-04-28T12:16:03.079Z,100872.53
2023-04-28T12:18:29.445Z,100866.22
2023-04-28T12:20:55.799Z,100865.81
2023-04-28T12:23:22.143Z,100862.19
2023-04-28T12:25:48.534Z,100856.25
2023-04-28T12:28:15.781Z,100859.84
2023-04-28T12:30:42.778Z,100851.53
2023-04-28T12:33:09.273Z,100844.78
2023-04-28T12:35:35.614Z,100841.19
2023-04-28T12:38:01.963Z,100839.59
2023-04-28T12:40:28.329Z,100843.97
2023-04-28T12:42:54.683Z,100843.97
2023-04-28T12:45:21.048Z,100842.38
2023-04-28T12:47:47.483Z,100836.03
2023-04-28T12:50:13.844Z,100833.66
2023-04-28T12:52:40.181Z,100828.50
2023-04-28T12:55:06.597Z,100822.53
2023-04-28T12:57:32.938Z,100816.59
2023-04-28T12:59:59.341Z,100826.16
2023-04-28T13:02:25.877Z,100822.94
2023-04-28T13:04:52.681Z,100817.00
2023-04-28T13:07:19.182Z,100816.19
2023-04-28T13:09:45.925Z,100821.38
2023-04-28T13:12:13.426Z,100826.16
2023-04-28T13:14:39.810Z,100822.56
2023-04-28T13:17:06.186Z,100817.81
2023-04-28T13:19:32.581Z,100813.41
2023-04-28T13:21:58.944Z,100808.66
2023-04-28T13:24:25.283Z,100816.59
2023-04-28T13:26:51.648Z,100808.28
2023-04-28T13:29:18.874Z,100819.81
2023-04-28T13:31:45.370Z,100804.72
2023-04-28T13:34:12.596Z,100805.91
2023-04-28T13:36:38.933Z,100796.78
2023-04-28T13:39:05.301Z,100799.22
2023-04-28T13:41:31.688Z,100794.91
2023-04-28T13:43:58.030Z,100794.91
2023-04-28T13:46:24.438Z,100789.72
2023-04-28T13:48:50.825Z,100779.78
2023-04-28T13:51:17.210Z,100792.13
2023-04-28T13:53:43.583Z,100782.56
2023-04-28T13:56:10.005Z,100781.78
2023-04-28T13:58:36.365Z,100776.22
2023-04-28T14:01:02.848Z,100770.25
2023-04-28T14:03:30.201Z,100774.59
2023-04-28T14:05:56.630Z,100775.44
2023-04-28T14:08:24.892Z,100771.84
2023-04-28T14:10:52.849Z,100782.94
2023-04-28T14:13:19.245Z,100769.44
2023-04-28T14:15:57.879Z,100765.50
2023-04-28T14:18:25.286Z,100775.00
2023-04-28T14:20:52.547Z,100755.53
2023-04-28T14:23:19.788Z,100763.50
2023-04-28T14:25:46.167Z,100759.53
2023-04-28T14:28:13.385Z,100755.53
2023-04-28T14:30:39.725Z,100751.97
2023-04-28T14:33:06.175Z,100756.75
2023-04-28T14:35:32.651Z,100750.75
2023-04-28T14:37:59.054Z,100744.03
2023-04-28T14:40:25.503Z,100751.59
2023-04-28T14:42:52.788Z,100742.06
2023-04-28T14:45:19.257Z,100730.97
2023-04-28T14:47:46.609Z,100739.28
2023-04-28T14:50:14.286Z,100732.13
2023-04-28T14:52:42.962Z,100739.69
2023-04-28T14:55:10.195Z,100727.31
2023-04-28T14:57:38.458Z,100721.41
2023-04-28T15:00:04.869Z,100733.66
2023-04-28T15:02:33.204Z,100730.47
2023-04-28T15:05:00.657Z,100717.03
2023-04-28T15:07:27.232Z,100716.63
2023-04-28T15:09:54.466Z,100717.84
2023-04-28T15:12:23.631Z,100711.91
2023-04-28T15:14:50.338Z,100705.94
2023-04-28T15:17:16.872Z,100710.31
2023-04-28T15:19:44.110Z,100709.91
2023-04-28T15:22:10.543Z,100700.00
2023-04-28T15:24:38.895Z,100697.22
2023-04-28T15:27:08.071Z,100699.16
2023-04-28T15:29:37.246Z,100690.84
2023-04-28T15:32:03.718Z,100694.00
2023-04-28T15:34:30.164Z,100693.19
2023-04-28T15:36:58.490Z,100690.00
2023-04-28T15:39:24.941Z,100695.22
2023-04-28T15:41:54.133Z,100688.44
2023-04-28T15:44:23.361Z,100690.03
2023-04-28T15:46:52.552Z,100680.06
2023-04-28T15:49:18.969Z,100682.84
2023-04-28T15:51:47.263Z,100677.28
2023-04-28T15:54:13.691Z,100674.94
2023-04-28T15:56:42.012Z,100685.66
2023-04-28T15:59:09.257Z,100680.94
2023-04-28T16:01:35.727Z,100684.06
2023-04-28T16:04:02.499Z,100684.84
2023-04-28T16:06:29.246Z,100676.50
2023-04-28T16:08:56.495Z,100680.06
2023-04-28T16:11:24.809Z,100682.84
2023-04-28T16:13:51.202Z,100670.13
2023-04-28T16:16:17.737Z,100664.16
2023-04-28T16:18:44.300Z,100672.09
2023-04-28T16:21:10.827Z,100666.94
2023-04-28T16:23:37.263Z,100667.69
2023-04-28T16:26:04.522Z,100666.13
2023-04-28T16:28:31.775Z,100666.16
2023-04-28T16:30:59.033Z,100673.28
2023-04-28T16:33:25.482Z,100661.00
2023-04-28T16:35:51.951Z,100665.38
2023-04-28T16:38:18.358Z,100668.16
2023-04-28T16:40:44.889Z,100657.81
2023-04-28T16:43:13.340Z,100659.41
2023-04-28T16:45:40.671Z,100659.41
2023-04-28T16:48:09.855Z,100652.25
2023-04-28T16:50:40.956Z,100652.25
2023-04-28T16:53:09.459Z,100656.22
2023-04-28T16:55:35.863Z,100651.81
2023-04-28T16:58:02.302Z,100646.28
2023-04-28T17:00:28.749Z,100645.88
2023-04-28T17:02:55.321Z,100644.69
2023-04-28T17:05:21.939Z,100643.53
2023-04-28T17:07:48.435Z,100643.09
2023-04-28T17:10:14.906Z,100632.38
2023-04-28T17:12:41.405Z,100643.09
2023-04-28T17:15:07.886Z,100639.53
2023-04-28T17:17:37.869Z,100637.94
2023-04-28T17:20:04.353Z,100639.16
2023-04-28T17:22:30.802Z,100639.16
2023-04-28T17:24:57.288Z,100636.75
2023-04-28T17:27:26.478Z,100633.19
2023-04-28T17:29:54.843Z,100636.34
2023-04-28T17:32:23.227Z,100641.53
2023-04-28T17:34:51.600Z,100632.38
2023-04-28T17:37:18.090Z,100632.75
2023-04-28T17:39:45.356Z,100628.00
2023-04-28T17:42:13.634Z,100635.53
2023-04-28T17:44:40.119Z,100630.78
2023-04-28T17:47:07.666Z,100626.78
2023-04-28T17:49:34.114Z,100630.78
2023-04-28T17:52:04.104Z,100632.34
2023-04-28T17:54:31.342Z,100633.94
2023-04-28T17:56:58.079Z,100628.44
2023-04-28T17:59:27.393Z,100625.25
2023-04-28T18:01:53.836Z,100638.38
2023-04-28T18:04:20.374Z,100634.38
2023-04-28T18:06:46.922Z,100629.66
2023-04-28T18:09:13.445Z,100626.44
2023-04-28T18:11:39.902Z,100635.16
2023-04-28T18:14:06.386Z,100628.03
2023-04-28T18:16:32.899Z,100626.41
2023-04-28T18:19:00.253Z,100631.56
2023-04-28T18:21:26.713Z,100631.59
2023-04-28T18:23:54.109Z,100633.19
2023-04-28T18:26:21.517Z,100626.03
2023-04-28T18:28:48.036Z,100631.59
2023-04-28T18:31:15.440Z,100639.53
2023-04-28T18:33:41.916Z,100633.97
2023-04-28T18:36:09.200Z,100629.22
2023-04-28T18:38:36.591Z,100628.03
2023-04-28T18:41:03.116Z,100628.44
2023-04-28T18:43:29.644Z,100637.56
2023-04-28T18:45:56.131Z,100632.41
2023-04-28T18:48:22.748Z,100626.03
2023-04-28T18:50:49.328Z,100627.25
2023-04-28T18:53:16.728Z,100628.81
2023-04-28T18:55:43.240Z,100630.81
2023-04-28T18:58:10.481Z,100626.03
2023-04-28T19:00:37.238Z,100622.88
2023-04-28T19:03:07.461Z,100631.22
2023-04-28T19:05:36.655Z,100626.03
2023-04-28T19:08:03.897Z,100625.25
2023-04-28T19:10:34.903Z,100624.47
2023-04-28T19:13:02.161Z,100632.78
2023-04-28T19:15:28.560Z,100633.22
2023-04-28T19:17:55.409Z,100630.44
2023-04-28T19:20:23.713Z,100619.31
2023-04-28T19:22:50.218Z,100626.81
2023-04-28T19:25:16.701Z,100619.69
2023-04-28T19:27:43.988Z,100630.41
2023-04-28T19:30:10.415Z,100626.44
2023-04-28T19:32:38.755Z,100626.41
2023-04-28T19:35:07.082Z,100622.03
2023-04-28T19:37:36.256Z,100621.25
2023-04-28T19:40:03.566Z,100620.03
2023-04-28T19:42:30.841Z,100619.56
2023-04-28T19:44:58.106Z,100618.78
2023-04-28T19:47:25.520Z,100625.09
2023-04-28T19:49:52.204Z,100624.34
2023-04-28T19:52:18.893Z,100627.09
2023-04-28T19:54:45.321Z,100621.97
2023-04-28T19:57:11.864Z,100617.56
2023-04-28T19:59:38.304Z,100625.09
2023-04-28T20:02:05.625Z,100625.88
2023-04-28T20:04:33.199Z,100620.72
2023-04-28T20:06:59.760Z,100618.81
2023-04-28T20:09:26.202Z,100614.91
2023-04-28T20:11:53.435Z,100617.28
2023-04-28T20:14:20.722Z,100620.47
2023-04-28T20:16:47.146Z,100616.91
2023-04-28T20:19:14.534Z,100613.31
2023-04-28T20:21:41.018Z,100623.25
2023-04-28T20:24:07.465Z,100626.03
2023-04-28T20:26:35.782Z,100626.81
2023-04-28T20:29:02.200Z,100628.81
2023-04-28T20:31:29.642Z,100626.03
2023-04-28T20:33:56.104Z,100622.09
2023-04-28T20:36:23.556Z,100622.88
2023-04-28T20:38:50.066Z,100621.72
2023-04-28T20:41:16.587Z,100625.28
2023-04-28T20:43:43.061Z,100622.50
2023-04-28T20:46:09.577Z,100622.50
2023-04-28T20:48:36.959Z,100612.97
2023-04-28T20:51:03.400Z,100618.94
2023-04-28T20:53:32.975Z,100618.53
2023-04-28T20:55:59.575Z,100613.38
2023-04-28T20:58:26.070Z,100612.97
2023-04-28T21:00:53.495Z,100618.94
2023-04-28T21:03:21.006Z,100614.94
2023-04-28T21:05:47.546Z,100611.38
2023-04-28T21:08:14.932Z,100616.94
2023-04-28T21:10:42.297Z,100603.84
2023-04-28T21:13:08.769Z,100609.00
2023-04-28T21:15:35.226Z,100606.22
2023-04-28T21:18:01.796Z,100598.28
2023-04-28T21:20:29.220Z,100599.47
2023-04-28T21:22:56.613Z,100589.56
2023-04-28T21:25:23.979Z,100597.88
2023-04-28T21:27:51.280Z,100603.03
2023-04-28T21:30:18.660Z,100595.88
2023-04-28T21:32:45.171Z,100599.47
2023-04-28T21:35:12.588Z,100599.09
2023-04-28T21:37:39.005Z,100595.09
2023-04-28T21:40:05.471Z,100591.16
2023-04-28T21:42:31.958Z,100586.38
2023-04-28T21:44:59.298Z,100592.31
2023-04-28T21:47:26.611Z,100583.59
2023-04-28T21:49:53.913Z,100588.75
2023-04-28T21:52:20.352Z,100593.94
2023-04-28T21:54:46.789Z,100587.56
2023-04-28T21:57:13.292Z,100595.50
2023-04-28T21:59:40.694Z,100584.00
2023-04-28T22:02:08.197Z,100587.56
2023-04-28T22:04:34.858Z,100595.50
2023-04-28T22:07:02.442Z,100589.56
2023-04-28T22:09:29.904Z,100589.16
2023-04-28T22:11:56.390Z,100586.38
2023-04-28T22:14:39.722Z,100575.25
2023-04-28T22:17:07.297Z,100581.22
2023-04-28T22:19:33.769Z,100583.22
2023-04-28T22:22:00.228Z,100586.38
2023-04-28T22:24:26.684Z,100585.97
2023-04-28T22:26:53.160Z,100576.44
2023-04-28T22:29:20.652Z,100580.03
2023-04-28T22:31:47.136Z,100578.44
2023-04-28T22:34:13.609Z,100578.44
2023-04-28T22:36:41.013Z,100573.28
2023-04-28T22:39:07.483Z,100577.66
2023-04-28T22:41:34.841Z,100575.66
2023-04-28T22:44:01.291Z,100571.69
2023-04-28T22:46:28.826Z,100562.97
2023-04-28T22:48:55.404Z,100574.47
2023-04-28T22:51:22.810Z,100568.50
2023-04-28T22:53:50.210Z,100563.34
2023-04-28T22:56:17.605Z,100562.56
2023-04-28T22:58:44.996Z,100569.69
2023-04-28T23:01:11.476Z,100560.97
2023-04-28T23:03:38.005Z,100567.72
2023-04-28T23:06:05.485Z,100562.56
2023-04-28T23:08:32.899Z,100563.75
2023-04-28T23:10:59.364Z,100568.50
2023-04-28T23:13:26.692Z,100555.44
2023-04-28T23:15:53.208Z,100555.44
2023-04-28T23:18:20.622Z,100557.00
2023-04-28T23:20:48.006Z,100550.25
2023-04-28T23:23:14.486Z,100546.72
2023-04-28T23:25:41.845Z,100546.72
2023-04-28T23:28:08.315Z,100547.88
2023-04-28T23:30:35.714Z,100547.50
2023-04-28T23:33:02.199Z,100542.72
2023-04-28T23:35:28.667Z,100544.72
2023-04-28T23:37:56.027Z,100541.94
2023-04-28T23:40:23.404Z,100549.06
2023-04-28T23:42:50.754Z,100530.44
2023-04-28T23:45:17.200Z,100537.56
2023-04-28T23:47:44.642Z,100531.59
2023-04-28T23:50:11.114Z,100528.03
2023-04-28T23:52:38.518Z,100530.44
2023-04-28T23:55:05.011Z,100523.28
2023-04-28T23:57:31.442Z,100518.91
2023-04-28T23:59:58.830Z,100521.28
